createdAt,value
2022-11-26T00:01:02.929Z,7.05
2022-11-26T00:05:08.618Z,7.85
2022-11-26T00:10:08.028Z,7.82
2022-11-26T00:15:07.758Z,8.57
2022-11-26T00:20:08.491Z,9.07
2022-11-26T00:25:08.190Z,7.78
2022-11-26T00:30:07.898Z,7.65
2022-11-26T00:35:08.592Z,8.65
2022-11-26T00:40:08.321Z,7.90
2022-11-26T00:45:08.035Z,7.32
2022-11-26T00:50:07.729Z,9.50
2022-11-26T00:55:08.435Z,7.80
2022-11-26T01:00:08.126Z,8.30
2022-11-26T01:05:07.971Z,8.38
2022-11-26T01:10:07.715Z,8.35
2022-11-26T01:15:08.463Z,8.75
2022-11-26T01:20:08.196Z,7.35
2022-11-26T01:25:07.925Z,7.20
2022-11-26T01:30:08.674Z,7.90
2022-11-26T01:35:08.364Z,7.70
2022-11-26T01:40:08.090Z,7.78
2022-11-26T01:45:07.802Z,8.43
2022-11-26T01:50:08.515Z,7.82
2022-11-26T01:55:08.227Z,7.28
2022-11-26T02:00:07.926Z,8.02
2022-11-26T02:05:08.638Z,7.15
2022-11-26T02:10:08.354Z,7.20
2022-11-26T02:15:08.090Z,6.03
2022-11-26T02:20:07.823Z,6.25
2022-11-26T02:25:08.525Z,7.70
2022-11-26T02:30:08.238Z,7.45
2022-11-26T02:35:07.974Z,7.22
2022-11-26T02:40:07.715Z,7.95
2022-11-26T02:45:08.430Z,7.85
2022-11-26T02:50:08.205Z,7.38
2022-11-26T02:55:07.885Z,7.03
2022-11-26T03:00:08.624Z,7.55
2022-11-26T03:05:08.363Z,8.38
2022-11-26T03:10:08.053Z,7.72
2022-11-26T03:15:07.783Z,6.88
2022-11-26T03:20:08.506Z,7.20
2022-11-26T03:25:08.221Z,7.10
2022-11-26T03:30:07.906Z,6.32
2022-11-26T03:35:08.674Z,6.00
2022-11-26T03:40:08.398Z,6.50
2022-11-26T03:45:08.106Z,5.90
2022-11-26T03:50:07.820Z,6.60
2022-11-26T03:55:08.569Z,6.22
2022-11-26T04:00:08.282Z,7.05
2022-11-26T04:05:08.013Z,7.50
2022-11-26T04:10:07.748Z,8.07
2022-11-26T04:15:08.447Z,8.18
2022-11-26T04:20:08.157Z,7.10
2022-11-26T04:25:07.839Z,6.57
2022-11-26T04:30:08.589Z,6.22
2022-11-26T04:35:08.321Z,6.57
2022-11-26T04:40:08.059Z,6.97
2022-11-26T04:45:07.742Z,7.15
2022-11-26T04:50:08.480Z,6.57
2022-11-26T04:55:08.201Z,7.63
2022-11-26T05:00:07.930Z,6.35
2022-11-26T05:05:02.748Z,6.90
2022-11-26T05:10:02.575Z,6.90
2022-11-26T05:15:02.407Z,6.82
2022-11-26T05:20:02.229Z,7.40
2022-11-26T05:25:02.149Z,6.82
2022-11-26T05:30:01.974Z,9.60
2022-11-26T05:35:01.819Z,9.27
2022-11-26T05:40:02.667Z,8.50
2022-11-26T05:45:02.491Z,8.40
2022-11-26T05:50:02.308Z,8.80
2022-11-26T05:55:02.139Z,8.75
2022-11-26T06:00:02.124Z,6.85
2022-11-26T06:05:01.930Z,7.60
2022-11-26T06:10:01.736Z,7.57
2022-11-26T06:15:02.513Z,7.95
2022-11-26T06:20:02.310Z,7.43
2022-11-26T06:25:02.234Z,7.38
2022-11-26T06:30:03.796Z,6.35
2022-11-26T06:35:02.642Z,6.85
2022-11-26T06:40:02.555Z,6.38
2022-11-26T06:45:02.486Z,6.38
2022-11-26T06:50:06.404Z,6.63
2022-11-26T06:55:02.241Z,6.95
2022-11-26T07:00:02.196Z,6.28
2022-11-26T07:05:02.025Z,6.53
2022-11-26T07:10:01.928Z,7.93
2022-11-26T07:15:02.941Z,7.25
2022-11-26T07:20:01.763Z,10.27
2022-11-26T07:25:02.528Z,9.60
2022-11-26T07:30:02.506Z,11.02
2022-11-26T07:35:02.296Z,11.48
2022-11-26T07:40:02.128Z,9.82
2022-11-26T07:45:02.030Z,8.95
2022-11-26T07:50:01.896Z,10.10
2022-11-26T07:55:04.215Z,9.25
2022-11-26T08:00:02.703Z,8.55
2022-11-26T08:05:02.541Z,7.38
2022-11-26T08:10:04.397Z,7.75
2022-11-26T08:15:02.379Z,7.85
2022-11-26T08:20:02.262Z,6.65
2022-11-26T08:25:02.121Z,7.20
2022-11-26T08:30:01.970Z,7.90
2022-11-26T08:35:01.790Z,7.55
2022-11-26T08:40:02.620Z,8.50
2022-11-26T08:45:02.490Z,7.20
2022-11-26T08:50:02.279Z,6.22
2022-11-26T08:55:02.101Z,7.20
2022-11-26T09:00:01.931Z,7.90
2022-11-26T09:05:02.722Z,7.13
2022-11-26T09:10:02.516Z,7.60
2022-11-26T09:15:02.404Z,5.82
2022-11-26T09:20:02.408Z,7.07
2022-11-26T09:25:02.305Z,6.57
2022-11-26T09:30:02.353Z,7.97
2022-11-26T09:35:02.379Z,7.72
2022-11-26T09:40:02.291Z,7.43
2022-11-26T09:45:02.260Z,7.43
2022-11-26T09:50:02.178Z,7.50
2022-11-26T09:55:01.969Z,8.23
2022-11-26T10:00:01.739Z,8.70
2022-11-26T10:05:02.685Z,8.30
2022-11-26T10:10:02.511Z,8.98
2022-11-26T10:15:02.455Z,8.27
2022-11-26T10:20:12.234Z,0
2022-11-26T10:25:01.996Z,6.90
2022-11-26T10:30:01.934Z,7.85
2022-11-26T10:35:02.796Z,8.32
2022-11-26T10:40:07.099Z,6.70
2022-11-26T10:45:02.223Z,7.80
2022-11-26T10:55:01.979Z,6.93
2022-11-26T11:00:01.821Z,7.00
2022-11-26T11:05:02.671Z,7.50
2022-11-26T11:10:02.488Z,7.55
2022-11-26T11:15:02.338Z,6.20
2022-11-26T11:20:02.155Z,5.95
2022-11-26T11:25:02.040Z,6.03
2022-11-26T11:30:01.837Z,6.88
2022-11-26T11:35:02.643Z,8.15
2022-11-26T11:40:02.493Z,6.78
2022-11-26T11:45:03.284Z,6.65
2022-11-26T11:50:02.128Z,7.07
2022-11-26T11:55:01.868Z,7.05
2022-11-26T12:00:02.726Z,7.15
2022-11-26T12:05:02.767Z,7.57
2022-11-26T12:10:02.664Z,6.70
2022-11-26T12:15:03.167Z,7.72
2022-11-26T12:20:02.177Z,6.35
2022-11-26T12:25:02.057Z,7.05
2022-11-26T12:30:01.883Z,7.72
2022-11-26T12:35:02.854Z,7.43
2022-11-26T12:40:02.668Z,6.40
2022-11-26T12:45:02.508Z,7.78
2022-11-26T12:50:02.650Z,7.03
2022-11-26T12:55:12.536Z,0
2022-11-26T13:00:02.302Z,6.65
2022-11-26T13:05:02.133Z,6.47
2022-11-26T13:10:01.961Z,5.57
2022-11-26T13:15:01.778Z,7.13
2022-11-26T13:20:02.632Z,6.60
2022-11-26T13:25:02.453Z,7.40
2022-11-26T13:30:03.660Z,6.03
2022-11-26T13:35:12.401Z,0
2022-11-26T13:40:02.154Z,6.68
2022-11-26T13:45:01.965Z,5.82
2022-11-26T13:50:01.690Z,5.40
2022-11-26T13:55:02.441Z,6.57
2022-11-26T14:00:02.295Z,6.85
2022-11-26T14:05:08.746Z,6.25
2022-11-26T14:10:02.942Z,5.38
2022-11-26T14:15:01.754Z,4.90
2022-11-26T14:20:02.731Z,7.00
2022-11-26T14:25:02.572Z,6.03
2022-11-26T14:30:02.366Z,5.72
2022-11-26T14:35:02.190Z,5.22
2022-11-26T14:40:02.024Z,5.90
2022-11-26T14:45:01.976Z,5.07
2022-11-26T14:50:01.896Z,5.68
2022-11-26T14:55:02.764Z,6.22
2022-11-26T15:00:02.776Z,5.50
2022-11-26T15:05:02.708Z,5.70
2022-11-26T15:10:02.644Z,4.40
2022-11-26T15:15:02.579Z,5.07
2022-11-26T15:20:02.425Z,5.18
2022-11-26T15:25:02.230Z,4.40
2022-11-26T15:30:12.058Z,0
2022-11-26T15:35:01.889Z,4.68
2022-11-26T15:40:02.735Z,4.68
2022-11-26T15:45:02.565Z,4.47
2022-11-26T15:50:02.371Z,4.80
2022-11-26T15:55:12.391Z,4.60
2022-11-26T16:00:01.862Z,3.88
2022-11-26T16:05:02.723Z,4.50
2022-11-26T16:10:02.521Z,4.90
2022-11-26T16:15:02.463Z,4.80
2022-11-26T16:20:02.280Z,5.20
2022-11-26T16:25:02.126Z,4.57
2022-11-26T16:30:01.936Z,4.28
2022-11-26T16:35:17.424Z,4.20
2022-11-26T16:40:01.918Z,4.85
2022-11-26T16:45:04.127Z,4.55
2022-11-26T16:50:02.324Z,4.93
2022-11-26T16:55:02.206Z,4.75
2022-11-26T17:00:02.147Z,4.10
2022-11-26T17:05:01.967Z,5.10
2022-11-26T17:10:01.787Z,3.92
2022-11-26T17:15:02.559Z,4.15
2022-11-26T17:20:02.387Z,4.30
2022-11-26T17:25:02.307Z,4.82
2022-11-26T17:30:02.317Z,4.72
2022-11-26T17:35:02.276Z,4.68
2022-11-26T17:40:02.261Z,3.97
2022-11-26T17:45:02.250Z,4.53
2022-11-26T17:50:02.175Z,4.32
2022-11-26T17:55:02.077Z,3.92
2022-11-26T18:00:02.040Z,4.28
2022-11-26T18:05:01.860Z,3.80
2022-11-26T18:10:02.693Z,4.13
2022-11-26T18:15:02.424Z,4.53
2022-11-26T18:20:02.247Z,4.07
2022-11-26T18:25:01.979Z,4.07
2022-11-26T18:30:01.818Z,5.25
2022-11-26T18:35:02.662Z,4.20
2022-11-26T18:40:02.522Z,4.45
2022-11-26T18:45:02.329Z,3.65
2022-11-26T18:50:02.152Z,4.75
2022-11-26T18:55:02.014Z,4.18
2022-11-26T19:00:01.929Z,4.22
2022-11-26T19:05:02.761Z,4.07
2022-11-26T19:10:02.609Z,4.50
2022-11-26T19:15:02.414Z,4.40
2022-11-26T19:20:02.238Z,4.07
2022-11-26T19:25:02.090Z,3.30
2022-11-26T19:30:01.904Z,4.22
2022-11-26T19:35:05.582Z,4.60
2022-11-26T19:40:02.007Z,4.22
2022-11-26T19:45:01.817Z,4.05
2022-11-26T19:50:02.643Z,3.83
2022-11-26T19:55:02.469Z,4.20
2022-11-26T20:00:02.218Z,4.30
2022-11-26T20:05:02.209Z,3.55
2022-11-26T20:10:02.168Z,3.85
2022-11-26T20:15:02.118Z,4.80
2022-11-26T20:20:02.031Z,4.10
2022-11-26T20:25:01.960Z,4.25
2022-11-26T20:30:02.094Z,4.43
2022-11-26T20:35:02.034Z,4.57
2022-11-26T20:40:01.970Z,4.78
2022-11-26T20:45:01.793Z,4.32
2022-11-26T20:50:02.570Z,4.05
2022-11-26T20:55:02.373Z,4.00
2022-11-26T21:00:02.229Z,4.05
2022-11-26T21:05:02.046Z,4.38
2022-11-26T21:10:01.846Z,4.03
2022-11-26T21:15:02.616Z,4.47
2022-11-26T21:20:02.435Z,4.13
2022-11-26T21:25:02.268Z,4.50
2022-11-26T21:30:02.073Z,4.38
2022-11-26T21:35:01.934Z,4.22
2022-11-26T21:40:01.728Z,4.10
2022-11-26T21:45:02.499Z,3.63
2022-11-26T21:50:02.321Z,3.78
2022-11-26T21:55:03.819Z,4.05
2022-11-26T22:00:01.898Z,4.60
2022-11-26T22:05:02.751Z,3.70
2022-11-26T22:10:02.671Z,4.00
2022-11-26T22:15:02.492Z,4.32
2022-11-26T22:20:02.298Z,4.32
2022-11-26T22:25:02.118Z,4.80
2022-11-26T22:30:01.889Z,3.90
2022-11-26T22:35:15.550Z,4.13
2022-11-26T22:40:08.270Z,3.75
2022-11-26T22:45:07.985Z,4.43
2022-11-26T22:50:07.713Z,3.85
2022-11-26T22:55:08.423Z,4.45
2022-11-26T23:00:08.175Z,4.15
2022-11-26T23:05:07.862Z,4.15
2022-11-26T23:10:08.600Z,4.35
2022-11-26T23:15:08.344Z,4.88
2022-11-26T23:20:08.072Z,5.90
2022-11-26T23:25:07.781Z,5.10
2022-11-26T23:30:08.504Z,5.50
2022-11-26T23:35:08.446Z,4.15
2022-11-26T23:40:08.232Z,4.82
2022-11-26T23:45:07.925Z,4.78
2022-11-26T23:50:08.639Z,4.53
2022-11-26T23:55:08.374Z,4.70
